sensor_id;sensor_type;location;lat;lon;timestamp;P1;durP1;ratioP1;P2;durP2;ratioP2
47367;SDS011;34646;47.964;7.982;2022-12-07T00:04:49;9.82;;;5.10;;
47367;SDS011;34646;47.964;7.982;2022-12-07T00:10:50;10.00;;;4.90;;
47367;SDS011;34646;47.964;7.982;2022-12-07T00:16:51;10.80;;;4.77;;
47367;SDS011;34646;47.964;7.982;2022-12-07T00:22:52;10.68;;;5.20;;
47367;SDS011;34646;47.964;7.982;2022-12-07T00:28:57;9.13;;;5.23;;
47367;SDS011;34646;47.964;7.982;2022-12-07T00:34:59;10.02;;;4.78;;
47367;SDS011;34646;47.964;7.982;2022-12-07T00:41:10;10.13;;;4.77;;
47367;SDS011;34646;47.964;7.982;2022-12-07T00:47:16;8.13;;;4.50;;
47367;SDS011;34646;47.964;7.982;2022-12-07T00:53:16;8.87;;;4.70;;
47367;SDS011;34646;47.964;7.982;2022-12-07T00:59:18;8.27;;;4.78;;
47367;SDS011;34646;47.964;7.982;2022-12-07T01:05:18;9.60;;;4.30;;
47367;SDS011;34646;47.964;7.982;2022-12-07T01:11:20;7.50;;;4.10;;
47367;SDS011;34646;47.964;7.982;2022-12-07T01:17:23;7.82;;;4.05;;
47367;SDS011;34646;47.964;7.982;2022-12-07T01:23:24;8.73;;;4.20;;
47367;SDS011;34646;47.964;7.982;2022-12-07T01:29:24;9.67;;;4.77;;
47367;SDS011;34646;47.964;7.982;2022-12-07T01:35:25;11.50;;;6.03;;
47367;SDS011;34646;47.964;7.982;2022-12-07T01:41:27;7.70;;;3.93;;
47367;SDS011;34646;47.964;7.982;2022-12-07T01:47:32;6.97;;;4.07;;
47367;SDS011;34646;47.964;7.982;2022-12-07T01:53:33;7.57;;;3.77;;
47367;SDS011;34646;47.964;7.982;2022-12-07T01:59:36;7.72;;;4.38;;
47367;SDS011;34646;47.964;7.982;2022-12-07T02:05:38;6.07;;;3.47;;
47367;SDS011;34646;47.964;7.982;2022-12-07T02:11:40;6.45;;;3.92;;
47367;SDS011;34646;47.964;7.982;2022-12-07T02:30:10;7.72;;;3.90;;
47367;SDS011;34646;47.964;7.982;2022-12-07T02:36:16;6.30;;;3.50;;
47367;SDS011;34646;47.964;7.982;2022-12-07T02:42:23;5.72;;;3.53;;
47367;SDS011;34646;47.964;7.982;2022-12-07T02:48:31;7.10;;;3.65;;
47367;SDS011;34646;47.964;7.982;2022-12-07T02:54:33;6.78;;;3.55;;
47367;SDS011;34646;47.964;7.982;2022-12-07T03:00:37;6.53;;;3.27;;
47367;SDS011;34646;47.964;7.982;2022-12-07T03:07:00;5.82;;;3.38;;
47367;SDS011;34646;47.964;7.982;2022-12-07T03:19:13;7.05;;;3.20;;
47367;SDS011;34646;47.964;7.982;2022-12-07T03:25:17;6.55;;;3.78;;
47367;SDS011;34646;47.964;7.982;2022-12-07T03:31:22;5.75;;;3.25;;
47367;SDS011;34646;47.964;7.982;2022-12-07T03:37:29;4.75;;;3.00;;
47367;SDS011;34646;47.964;7.982;2022-12-07T03:43:36;5.13;;;3.45;;
47367;SDS011;34646;47.964;7.982;2022-12-07T03:49:51;5.63;;;3.15;;
47367;SDS011;34646;47.964;7.982;2022-12-07T03:55:58;7.20;;;3.25;;
47367;SDS011;34646;47.964;7.982;2022-12-07T04:02:03;5.47;;;3.22;;
47367;SDS011;34646;47.964;7.982;2022-12-07T04:08:06;6.57;;;3.53;;
47367;SDS011;34646;47.964;7.982;2022-12-07T04:14:06;4.93;;;3.27;;
47367;SDS011;34646;47.964;7.982;2022-12-07T04:20:19;5.28;;;2.85;;
47367;SDS011;34646;47.964;7.982;2022-12-07T04:26:20;5.67;;;3.03;;
47367;SDS011;34646;47.964;7.982;2022-12-07T04:32:20;4.93;;;3.07;;
47367;SDS011;34646;47.964;7.982;2022-12-07T04:38:22;6.28;;;2.88;;
47367;SDS011;34646;47.964;7.982;2022-12-07T04:44:23;5.80;;;3.50;;
47367;SDS011;34646;47.964;7.982;2022-12-07T04:50:24;4.57;;;2.75;;
47367;SDS011;34646;47.964;7.982;2022-12-07T04:56:25;6.53;;;3.30;;
47367;SDS011;34646;47.964;7.982;2022-12-07T05:08:27;5.32;;;2.88;;
47367;SDS011;34646;47.964;7.982;2022-12-07T05:14:28;6.47;;;3.10;;
47367;SDS011;34646;47.964;7.982;2022-12-07T05:20:29;4.70;;;2.93;;
47367;SDS011;34646;47.964;7.982;2022-12-07T05:26:29;5.53;;;2.87;;
47367;SDS011;34646;47.964;7.982;2022-12-07T05:32:30;4.80;;;3.03;;
47367;SDS011;34646;47.964;7.982;2022-12-07T05:38:31;7.67;;;2.87;;
47367;SDS011;34646;47.964;7.982;2022-12-07T05:44:33;5.78;;;2.75;;
47367;SDS011;34646;47.964;7.982;2022-12-07T05:50:33;8.27;;;4.40;;
47367;SDS011;34646;47.964;7.982;2022-12-07T05:56:34;8.90;;;3.30;;
47367;SDS011;34646;47.964;7.982;2022-12-07T06:02:35;5.57;;;3.30;;
47367;SDS011;34646;47.964;7.982;2022-12-07T06:08:35;7.53;;;3.10;;
47367;SDS011;34646;47.964;7.982;2022-12-07T06:14:36;7.60;;;2.83;;
47367;SDS011;34646;47.964;7.982;2022-12-07T06:20:37;11.98;;;3.28;;
47367;SDS011;34646;47.964;7.982;2022-12-07T06:26:38;7.10;;;2.90;;
47367;SDS011;34646;47.964;7.982;2022-12-07T06:32:39;7.45;;;3.08;;
47367;SDS011;34646;47.964;7.982;2022-12-07T06:38:40;13.93;;;3.17;;
47367;SDS011;34646;47.964;7.982;2022-12-07T06:44:40;5.50;;;2.67;;
47367;SDS011;34646;47.964;7.982;2022-12-07T06:50:43;5.50;;;3.13;;
47367;SDS011;34646;47.964;7.982;2022-12-07T06:56:47;9.07;;;3.20;;
47367;SDS011;34646;47.964;7.982;2022-12-07T07:02:48;4.97;;;2.07;;
47367;SDS011;34646;47.964;7.982;2022-12-07T07:08:49;8.63;;;2.93;;
47367;SDS011;34646;47.964;7.982;2022-12-07T07:14:49;4.47;;;2.40;;
47367;SDS011;34646;47.964;7.982;2022-12-07T07:20:51;5.17;;;2.50;;
47367;SDS011;34646;47.964;7.982;2022-12-07T07:26:51;5.45;;;2.67;;
47367;SDS011;34646;47.964;7.982;2022-12-07T07:32:56;5.03;;;2.83;;
47367;SDS011;34646;47.964;7.982;2022-12-07T07:39:00;5.18;;;2.40;;
47367;SDS011;34646;47.964;7.982;2022-12-07T07:45:01;4.43;;;2.40;;
47367;SDS011;34646;47.964;7.982;2022-12-07T07:51:06;3.93;;;2.40;;
47367;SDS011;34646;47.964;7.982;2022-12-07T07:57:07;5.20;;;2.40;;
47367;SDS011;34646;47.964;7.982;2022-12-07T08:03:07;9.77;;;2.43;;
47367;SDS011;34646;47.964;7.982;2022-12-07T08:09:08;3.70;;;2.20;;
47367;SDS011;34646;47.964;7.982;2022-12-07T08:15:09;2.70;;;2.03;;
47367;SDS011;34646;47.964;7.982;2022-12-07T08:21:11;5.83;;;2.80;;
47367;SDS011;34646;47.964;7.982;2022-12-07T08:27:14;5.40;;;2.42;;
47367;SDS011;34646;47.964;7.982;2022-12-07T08:33:14;3.60;;;2.20;;
47367;SDS011;34646;47.964;7.982;2022-12-07T08:39:15;4.03;;;2.70;;
47367;SDS011;34646;47.964;7.982;2022-12-07T08:45:16;4.10;;;2.10;;
47367;SDS011;34646;47.964;7.982;2022-12-07T08:57:19;3.03;;;1.97;;
47367;SDS011;34646;47.964;7.982;2022-12-07T09:03:20;2.93;;;1.93;;
47367;SDS011;34646;47.964;7.982;2022-12-07T09:09:20;3.47;;;1.90;;
47367;SDS011;34646;47.964;7.982;2022-12-07T09:15:21;3.13;;;2.00;;
47367;SDS011;34646;47.964;7.982;2022-12-07T09:21:22;5.10;;;2.20;;
47367;SDS011;34646;47.964;7.982;2022-12-07T09:27:22;3.97;;;2.03;;
47367;SDS011;34646;47.964;7.982;2022-12-07T09:33:23;4.60;;;2.00;;
47367;SDS011;34646;47.964;7.982;2022-12-07T09:39:24;4.30;;;2.00;;
47367;SDS011;34646;47.964;7.982;2022-12-07T09:45:27;3.40;;;2.10;;
47367;SDS011;34646;47.964;7.982;2022-12-07T09:51:36;2.78;;;1.80;;
47367;SDS011;34646;47.964;7.982;2022-12-07T09:57:37;3.20;;;1.80;;
47367;SDS011;34646;47.964;7.982;2022-12-07T10:03:39;3.08;;;2.03;;
47367;SDS011;34646;47.964;7.982;2022-12-07T10:09:42;3.30;;;1.90;;
47367;SDS011;34646;47.964;7.982;2022-12-07T10:15:44;2.60;;;1.90;;
47367;SDS011;34646;47.964;7.982;2022-12-07T10:34:22;2.53;;;1.60;;
47367;SDS011;34646;47.964;7.982;2022-12-07T10:40:31;2.60;;;1.60;;
47367;SDS011;34646;47.964;7.982;2022-12-07T10:59:18;2.83;;;1.65;;
47367;SDS011;34646;47.964;7.982;2022-12-07T11:18:34;3.17;;;1.70;;
47367;SDS011;34646;47.964;7.982;2022-12-07T11:25:23;1.98;;;1.35;;
47367;SDS011;34646;47.964;7.982;2022-12-07T11:31:46;2.50;;;1.60;;
47367;SDS011;34646;47.964;7.982;2022-12-07T11:38:01;2.95;;;1.45;;
47367;SDS011;34646;47.964;7.982;2022-12-07T11:56:41;6.03;;;1.90;;
47367;SDS011;34646;47.964;7.982;2022-12-07T12:02:44;6.03;;;2.88;;
47367;SDS011;34646;47.964;7.982;2022-12-07T12:09:16;3.65;;;2.28;;
47367;SDS011;34646;47.964;7.982;2022-12-07T12:15:34;4.45;;;2.65;;
47367;SDS011;34646;47.964;7.982;2022-12-07T12:21:44;7.25;;;2.40;;
47367;SDS011;34646;47.964;7.982;2022-12-07T12:27:48;10.35;;;2.75;;
47367;SDS011;34646;47.964;7.982;2022-12-07T12:33:51;8.27;;;3.40;;
47367;SDS011;34646;47.964;7.982;2022-12-07T12:40:12;8.95;;;2.88;;
47367;SDS011;34646;47.964;7.982;2022-12-07T12:52:47;10.65;;;3.40;;
47367;SDS011;34646;47.964;7.982;2022-12-07T12:59:15;17.87;;;5.00;;
47367;SDS011;34646;47.964;7.982;2022-12-07T13:05:22;17.00;;;3.97;;
47367;SDS011;34646;47.964;7.982;2022-12-07T13:11:27;17.73;;;4.05;;
47367;SDS011;34646;47.964;7.982;2022-12-07T13:29:46;12.13;;;3.60;;
47367;SDS011;34646;47.964;7.982;2022-12-07T13:35:47;13.07;;;3.43;;
47367;SDS011;34646;47.964;7.982;2022-12-07T13:41:51;12.63;;;3.23;;
47367;SDS011;34646;47.964;7.982;2022-12-07T13:47:54;8.73;;;3.38;;
47367;SDS011;34646;47.964;7.982;2022-12-07T13:54:07;8.43;;;3.15;;
47367;SDS011;34646;47.964;7.982;2022-12-07T14:00:15;11.80;;;2.72;;
47367;SDS011;34646;47.964;7.982;2022-12-07T14:06:26;13.60;;;3.50;;
47367;SDS011;34646;47.964;7.982;2022-12-07T14:12:28;13.57;;;3.22;;
47367;SDS011;34646;47.964;7.982;2022-12-07T14:24:41;11.68;;;3.58;;
47367;SDS011;34646;47.964;7.982;2022-12-07T14:30:43;12.50;;;3.42;;
47367;SDS011;34646;47.964;7.982;2022-12-07T14:36:43;10.67;;;2.60;;
47367;SDS011;34646;47.964;7.982;2022-12-07T14:42:44;10.50;;;2.90;;
47367;SDS011;34646;47.964;7.982;2022-12-07T14:48:47;12.52;;;2.85;;
47367;SDS011;34646;47.964;7.982;2022-12-07T14:54:48;8.93;;;2.90;;
47367;SDS011;34646;47.964;7.982;2022-12-07T15:00:49;8.83;;;2.93;;
47367;SDS011;34646;47.964;7.982;2022-12-07T15:06:56;11.00;;;3.30;;
47367;SDS011;34646;47.964;7.982;2022-12-07T15:13:03;11.23;;;3.30;;
47367;SDS011;34646;47.964;7.982;2022-12-07T15:19:22;8.52;;;3.17;;
47367;SDS011;34646;47.964;7.982;2022-12-07T15:25:25;9.63;;;2.35;;
47367;SDS011;34646;47.964;7.982;2022-12-07T15:31:26;7.60;;;2.50;;
47367;SDS011;34646;47.964;7.982;2022-12-07T15:37:27;12.53;;;3.33;;
47367;SDS011;34646;47.964;7.982;2022-12-07T15:43:27;9.73;;;2.80;;
47367;SDS011;34646;47.964;7.982;2022-12-07T15:49:46;8.13;;;2.55;;
47367;SDS011;34646;47.964;7.982;2022-12-07T15:55:47;8.80;;;3.10;;
47367;SDS011;34646;47.964;7.982;2022-12-07T16:01:48;8.03;;;2.57;;
47367;SDS011;34646;47.964;7.982;2022-12-07T16:07:48;5.80;;;2.17;;
47367;SDS011;34646;47.964;7.982;2022-12-07T16:13:49;7.23;;;2.33;;
47367;SDS011;34646;47.964;7.982;2022-12-07T16:19:50;8.20;;;2.07;;
47367;SDS011;34646;47.964;7.982;2022-12-07T16:25:51;7.60;;;2.53;;
47367;SDS011;34646;47.964;7.982;2022-12-07T16:31:51;6.20;;;2.03;;
47367;SDS011;34646;47.964;7.982;2022-12-07T16:37:52;7.10;;;2.50;;
47367;SDS011;34646;47.964;7.982;2022-12-07T16:43:53;5.80;;;2.10;;
47367;SDS011;34646;47.964;7.982;2022-12-07T16:49:53;6.23;;;2.23;;
47367;SDS011;34646;47.964;7.982;2022-12-07T16:55:54;5.83;;;2.27;;
47367;SDS011;34646;47.964;7.982;2022-12-07T17:01:55;5.13;;;1.80;;
47367;SDS011;34646;47.964;7.982;2022-12-07T17:07:56;8.00;;;2.37;;
47367;SDS011;34646;47.964;7.982;2022-12-07T17:13:57;7.65;;;2.15;;
47367;SDS011;34646;47.964;7.982;2022-12-07T17:20:17;4.88;;;2.00;;
47367;SDS011;34646;47.964;7.982;2022-12-07T17:26:20;10.95;;;2.47;;
47367;SDS011;34646;47.964;7.982;2022-12-07T17:32:23;9.55;;;2.90;;
47367;SDS011;34646;47.964;7.982;2022-12-07T17:38:24;22.17;;;5.30;;
47367;SDS011;34646;47.964;7.982;2022-12-07T17:44:26;20.63;;;8.52;;
47367;SDS011;34646;47.964;7.982;2022-12-07T17:50:27;26.40;;;10.75;;
47367;SDS011;34646;47.964;7.982;2022-12-07T17:56:46;27.63;;;11.85;;
47367;SDS011;34646;47.964;7.982;2022-12-07T18:02:47;31.27;;;13.17;;
47367;SDS011;34646;47.964;7.982;2022-12-07T18:08:48;27.63;;;11.30;;
47367;SDS011;34646;47.964;7.982;2022-12-07T18:14:49;32.83;;;12.07;;
47367;SDS011;34646;47.964;7.982;2022-12-07T18:20:50;28.83;;;13.47;;
47367;SDS011;34646;47.964;7.982;2022-12-07T18:26:50;31.27;;;15.87;;
47367;SDS011;34646;47.964;7.982;2022-12-07T18:38:52;38.22;;;17.27;;
47367;SDS011;34646;47.964;7.982;2022-12-07T18:44:53;38.40;;;16.43;;
47367;SDS011;34646;47.964;7.982;2022-12-07T18:51:01;31.07;;;15.20;;
47367;SDS011;34646;47.964;7.982;2022-12-07T18:57:03;35.78;;;15.82;;
47367;SDS011;34646;47.964;7.982;2022-12-07T19:03:03;34.10;;;16.03;;
47367;SDS011;34646;47.964;7.982;2022-12-07T19:09:04;30.20;;;14.00;;
47367;SDS011;34646;47.964;7.982;2022-12-07T19:15:05;34.67;;;14.47;;
47367;SDS011;34646;47.964;7.982;2022-12-07T19:21:07;31.35;;;12.73;;
47367;SDS011;34646;47.964;7.982;2022-12-07T19:27:08;32.87;;;13.00;;
47367;SDS011;34646;47.964;7.982;2022-12-07T19:33:10;26.42;;;12.90;;
47367;SDS011;34646;47.964;7.982;2022-12-07T19:39:10;24.37;;;11.90;;
47367;SDS011;34646;47.964;7.982;2022-12-07T19:45:11;21.67;;;10.87;;
47367;SDS011;34646;47.964;7.982;2022-12-07T19:51:12;20.53;;;9.97;;
47367;SDS011;34646;47.964;7.982;2022-12-07T19:57:13;21.73;;;10.67;;
47367;SDS011;34646;47.964;7.982;2022-12-07T20:03:15;18.30;;;10.10;;
47367;SDS011;34646;47.964;7.982;2022-12-07T20:09:16;21.13;;;8.87;;
47367;SDS011;34646;47.964;7.982;2022-12-07T20:15:17;20.05;;;9.35;;
47367;SDS011;34646;47.964;7.982;2022-12-07T20:21:17;19.83;;;9.07;;
47367;SDS011;34646;47.964;7.982;2022-12-07T20:27:18;19.33;;;9.00;;
47367;SDS011;34646;47.964;7.982;2022-12-07T20:33:19;18.47;;;8.10;;
47367;SDS011;34646;47.964;7.982;2022-12-07T20:39:20;17.27;;;9.13;;
47367;SDS011;34646;47.964;7.982;2022-12-07T20:45:22;18.48;;;9.00;;
47367;SDS011;34646;47.964;7.982;2022-12-07T20:51:23;17.23;;;8.47;;
47367;SDS011;34646;47.964;7.982;2022-12-07T20:57:23;16.37;;;8.27;;
47367;SDS011;34646;47.964;7.982;2022-12-07T21:03:24;16.27;;;8.33;;
47367;SDS011;34646;47.964;7.982;2022-12-07T21:09:25;16.07;;;7.53;;
47367;SDS011;34646;47.964;7.982;2022-12-07T21:15:26;14.70;;;6.60;;
47367;SDS011;34646;47.964;7.982;2022-12-07T21:21:26;13.43;;;6.70;;
47367;SDS011;34646;47.964;7.982;2022-12-07T21:27:27;15.03;;;7.40;;
47367;SDS011;34646;47.964;7.982;2022-12-07T21:33:29;14.67;;;7.17;;
47367;SDS011;34646;47.964;7.982;2022-12-07T21:39:30;13.40;;;6.82;;
47367;SDS011;34646;47.964;7.982;2022-12-07T21:45:31;18.43;;;8.07;;
47367;SDS011;34646;47.964;7.982;2022-12-07T21:51:32;13.65;;;6.55;;
47367;SDS011;34646;47.964;7.982;2022-12-07T21:57:34;15.07;;;6.35;;
47367;SDS011;34646;47.964;7.982;2022-12-07T22:03:36;13.65;;;6.57;;
47367;SDS011;34646;47.964;7.982;2022-12-07T22:09:37;10.25;;;5.97;;
47367;SDS011;34646;47.964;7.982;2022-12-07T22:15:39;15.43;;;6.43;;
47367;SDS011;34646;47.964;7.982;2022-12-07T22:21:40;17.85;;;6.05;;
47367;SDS011;34646;47.964;7.982;2022-12-07T22:27:40;15.67;;;6.90;;
47367;SDS011;34646;47.964;7.982;2022-12-07T22:33:41;11.67;;;6.00;;
47367;SDS011;34646;47.964;7.982;2022-12-07T22:39:42;13.27;;;6.40;;
47367;SDS011;34646;47.964;7.982;2022-12-07T22:45:43;10.93;;;5.47;;
47367;SDS011;34646;47.964;7.982;2022-12-07T22:51:43;10.63;;;6.00;;
47367;SDS011;34646;47.964;7.982;2022-12-07T22:57:44;11.87;;;6.10;;
47367;SDS011;34646;47.964;7.982;2022-12-07T23:03:45;13.17;;;6.20;;
47367;SDS011;34646;47.964;7.982;2022-12-07T23:09:46;12.00;;;5.60;;
47367;SDS011;34646;47.964;7.982;2022-12-07T23:15:47;8.77;;;5.37;;
47367;SDS011;34646;47.964;7.982;2022-12-07T23:21:47;8.23;;;5.10;;
47367;SDS011;34646;47.964;7.982;2022-12-07T23:27:48;7.57;;;4.30;;
47367;SDS011;34646;47.964;7.982;2022-12-07T23:33:49;10.47;;;5.77;;
47367;SDS011;34646;47.964;7.982;2022-12-07T23:39:49;12.07;;;5.37;;
47367;SDS011;34646;47.964;7.982;2022-12-07T23:45:50;8.87;;;4.70;;
47367;SDS011;34646;47.964;7.982;2022-12-07T23:51:51;6.93;;;4.63;;
47367;SDS011;34646;47.964;7.982;2022-12-07T23:57:51;11.00;;;5.37;;
